• Join FlightAware (Why Join?)
  • Login
  • US Flag 
10:25PM EDT


 

Airport Tracker/Info


-or-


 

Live Flight TrackerFlight Track Log ✈ UPS1333 ✈ 27-Dec-2013 ✈ KPBI - KSDF

Flight Track Log - Related Links

Times and Time Zones

All times are in EST time to prevent confusion due to time zone crossing. See the UPS1333 flight status page for this flight to view local times or setup timezone preferences in your user account.

Time Position Orientation Groundspeed Altitude Reporting Facility
EST Latitude Longitude Course Direction KTS MPH feet Rate Location/Type
10:08PM 26.8006 -80.0056 345° North 231 266 9,600  Level Miami Center
10:11PM 27.1824 -80.3115 344° North  Level Estimated
10:12PM 27.2822 -80.3549 332° Northwest  Level Estimated
10:14PM 27.0326 -80.5322 345° North 398 458 20,800  Level FlightAware ADS-B (KMCO)
10:15PM 27.0969 -80.5657 335° Northwest 396 456 22,100 2,220 Climbing FlightAware ADS-B (KMCO)
10:15PM 27.1686 -80.6034 335° Northwest 404 465 23,800 2,280 Climbing FlightAware ADS-B (KMCO)
10:16PM 27.2360 -80.6387 335° Northwest 412 474 25,200 1,560 Climbing FlightAware ADS-B (KMCO)
10:17PM 27.3091 -80.6773 335° Northwest 425 489 26,000 1,320 Climbing FlightAware ADS-B (KMCO)
10:17PM 27.3821 -80.7156 335° Northwest 425 489 27,100 2,040 Climbing FlightAware ADS-B (KMCO)
10:18PM 27.4545 -80.7538 335° Northwest 433 498 28,800 2,520 Climbing FlightAware ADS-B (KMCO)
10:19PM 27.5369 -80.7974 335° Northwest 436 502 30,700 2,580 Climbing FlightAware ADS-B (KMCO)
10:20PM 27.6173 -80.8397 335° Northwest 436 502 32,700 2,520 Climbing FlightAware ADS-B (KMCO)
10:20PM 27.6924 -80.8793 335° Northwest 438 504 34,300 2,160 Climbing FlightAware ADS-B (KMCO)
10:21PM 27.7648 -80.9177 335° Northwest 443 510 35,600 1,920 Climbing FlightAware ADS-B (KMCO)
10:22PM 27.8391 -80.9571 335° Northwest 443 510 36,900 1,860 Climbing FlightAware ADS-B (KMCO)
10:22PM 27.9061 -80.9929 335° Northwest 442 509 38,100 1,500 Climbing FlightAware ADS-B
10:23PM 27.9777 -81.0311 335° Northwest 450 518 38,800 660 Climbing FlightAware ADS-B
10:24PM 27.9777 -81.0311 335° Northwest 456 525 39,000 60 Climbing FlightAware ADS-B
10:25PM 28.1687 -81.1325 335° Northwest 455 524 39,000  Level FlightAware ADS-B
10:25PM 28.2510 -81.1766 335° Northwest 455 524 39,000  Level FlightAware ADS-B
10:26PM 28.3094 -81.2081 335° Northwest 454 522 39,000  Level FlightAware ADS-B (KMCO)
10:26PM 28.3651 -81.2381 335° Northwest 454 522 39,000  Level FlightAware ADS-B
10:27PM 28.4314 -81.2741 335° Northwest 454 522 39,000  Level FlightAware ADS-B (KMCO)
10:28PM 28.5054 -81.3142 335° Northwest 455 524 39,000  Level FlightAware ADS-B (KMCO)
10:28PM 28.5739 -81.3456 338° Northwest 462 532 39,000  Level FlightAware ADS-B (KSFB)
10:29PM 28.6358 -81.3682 342° North 465 535 39,000  Level FlightAware ADS-B
10:29PM 28.6981 -81.3889 344° North 467 537 39,000  Level FlightAware ADS-B (KSFB)
10:30PM 28.7710 -81.4125 344° North 467 537 39,000  Level FlightAware ADS-B (KSFB)
10:30PM 28.8404 -81.4348 344° North 465 535 39,000  Level FlightAware ADS-B (KMCO)
10:31PM 28.9249 -81.4621 344° North 463 533 39,000  Level FlightAware ADS-B (KMCO)
10:31PM 28.9801 -81.4798 344° North 460 529 39,000  Level FlightAware ADS-B (KSFB)
10:32PM 29.0516 -81.5029 344° North 455 524 39,000  Level FlightAware ADS-B (KMCO)
10:33PM 29.1311 -81.5286 344° North 449 517 39,000  Level FlightAware ADS-B (KMCO)
10:33PM 29.2231 -81.5584 344° North 443 510 39,000  Level FlightAware ADS-B (KMCO)
10:34PM 29.3096 -81.5866 344° North 439 505 39,000  Level FlightAware ADS-B (KMCO)
10:35PM 29.3884 -81.6124 344° North 436 502 39,000  Level FlightAware ADS-B (KMCO)
10:36PM 29.4749 -81.6406 344° North 433 498 39,000  Level FlightAware ADS-B (KMCO)
10:36PM 29.5544 -81.6667 344° North 431 496 39,000  Level FlightAware ADS-B (KMCO)
10:37PM 29.6271 -81.6905 344° North 431 496 39,000  Level FlightAware ADS-B (KMCO)
10:38PM 29.7066 -81.7166 344° North 431 496 39,000  Level FlightAware ADS-B (KMCO)
10:38PM 29.7884 -81.7435 344° North 430 495 39,000  Level FlightAware ADS-B (KMCO)
10:40PM 29.9381 -81.7947 344° North 429 494 39,000  Level Jacksonville Center
10:41PM 30.0511 -81.8294 345° North 424 488 39,000  Level Jacksonville Center
10:42PM 30.1683 -81.8692 344° North 424 488 39,000  Level Jacksonville Center
10:43PM 30.2856 -81.9039 346° North 424 488 39,000  Level Jacksonville Center
10:44PM 30.4028 -81.9436 344° North 429 494 39,000  Level Jacksonville Center
10:45PM 30.5264 -81.9833 345° North 451 519 39,000  Level Jacksonville Center
10:46PM 30.6331 -82.0233 342° North 445 512 39,000  Level Jacksonville Center
10:47PM 30.7525 -82.0633 344° North 440 506 39,000  Level Jacksonville Center
10:48PM 30.8717 -82.1036 344° North 440 506 39,000  Level Jacksonville Center
10:49PM 30.9889 -82.1436 344° North 440 506 39,000  Level Jacksonville Center
10:50PM 31.1081 -82.1842 344° North 440 506 39,000  Level Jacksonville Center
10:51PM 31.2231 -82.2269 342° North 440 506 39,000  Level Jacksonville Center
10:52PM 31.3422 -82.2650 345° North 440 506 39,000  Level Jacksonville Center
10:53PM 31.4575 -82.3081 342° North 440 506 39,000  Level Jacksonville Center
10:54PM 31.5744 -82.3389 347° North 435 501 39,000  Level Jacksonville Center
10:55PM 31.6894 -82.3797 343° North 435 501 39,000  Level Jacksonville Center
10:56PM 31.8697 -82.4419 344° North 440 506 39,000  Level Atlanta Center
10:57PM 31.9831 -82.4817 343° North 435 501 39,000  Level Atlanta Center
10:58PM 32.1003 -82.5211 344° North 435 501 39,000  Level Atlanta Center
10:59PM 32.2178 -82.5608 344° North 435 501 39,000  Level Atlanta Center
11:00PM 32.3289 -82.6058 341° North 435 501 39,000  Level Atlanta Center
11:01PM 32.4464 -82.6481 343° North 430 495 39,000  Level Atlanta Center
11:02PM 32.5575 -82.6958 340° North 430 495 39,000  Level Atlanta Center
11:03PM 32.6706 -82.7433 341° North 425 489 39,000  Level Atlanta Center
11:04PM 32.7861 -82.7936 340° North 433 498 39,000  Level Atlanta Center
11:05PM 32.9033 -82.8414 341° North 433 498 39,000  Level Atlanta Center
11:06PM 33.0186 -82.8894 341° North 438 504 39,000  Level Atlanta Center
11:07PM 33.1361 -82.9400 340° North 438 504 39,000  Level Atlanta Center
11:08PM 33.2492 -82.9906 339° North 433 498 39,000  Level Atlanta Center
11:09PM 33.3728 -83.0414 341° North 433 498 39,000  Level Atlanta Center
11:10PM 33.4900 -83.0897 341° North 433 498 39,000  Level Atlanta Center
11:11PM 33.6031 -83.1383 340° North 433 498 39,000  Level Atlanta Center
11:12PM 33.7183 -83.1847 341° North 433 498 39,000  Level Atlanta Center
11:13PM 33.8292 -83.2336 340° North 428 493 39,000  Level Atlanta Center
11:14PM 33.9442 -83.2800 341° North 428 493 39,000  Level Atlanta Center
11:15PM 34.0553 -83.3292 340° North 428 493 39,000  Level Atlanta Center
11:16PM 34.1681 -83.3783 340° North 428 493 39,000  Level Atlanta Center
11:17PM 34.2811 -83.4253 341° North 428 493 39,000  Level Atlanta Center
11:18PM 34.3897 -83.4725 340° North 428 493 39,000  Level Atlanta Center
11:19PM 34.5050 -83.5219 341° North 428 493 39,000  Level Atlanta Center
11:20PM 34.6136 -83.5694 340° North 428 493 39,000  Level Atlanta Center
11:21PM 34.7264 -83.6167 341° North 428 493 39,000  Level Atlanta Center
11:22PM 34.8247 -83.6617 339° North 428 493 39,000  Level Atlanta Center
11:23PM 34.9458 -83.7144 340° North 422 486 39,000  Level Atlanta Center
11:24PM 35.0442 -83.7647 337° Northwest 422 486 39,000  Level Atlanta Center
11:25PM 35.1528 -83.8128 340° North 422 486 39,000  Level Atlanta Center
11:26PM 35.2653 -83.8633 340° North 422 486 39,000  Level Atlanta Center
11:27PM 35.3781 -83.9114 341° North 422 486 39,000  Level Atlanta Center
11:28PM 35.4889 -83.9622 340° North 422 486 39,000  Level Atlanta Center
11:29PM 35.6139 -84.0158 341° North 430 495 39,000 -180 Level Atlanta Center
11:30PM 35.7244 -84.0669 339° North 430 495 38,700 -660 Descending Atlanta Center
11:31PM 35.8350 -84.1156 340° North 430 495 37,700 -1,140 Descending Atlanta Center
11:32PM 35.9414 -84.1644 340° North 420 483 36,500 -900 Descending Atlanta Center
11:33PM 36.0497 -84.2108 341° North 414 476 36,000 -300 Descending Atlanta Center
11:34PM 36.1386 -84.2508 340° North 413 475 36,000 -120 Level Indianapolis Center
11:35PM 36.2461 -84.2997 340° North 414 476 35,800 -600 Descending Indianapolis Center
11:36PM 36.3508 -84.3486 339° North 409 471 34,900 -1,080 Descending Indianapolis Center
11:37PM 36.4544 -84.3942 341° North 402 463 33,700 -1,560 Descending Indianapolis Center
11:38PM 36.5622 -84.4428 340° North 402 463 31,800 -1,920 Descending Indianapolis Center
11:39PM 36.6733 -84.4933 340° North 416 479 29,800 -1,860 Descending Indianapolis Center
11:40PM 36.7831 -84.5436 340° North 429 494 28,100 -2,100 Descending Indianapolis Center
11:41PM 36.8972 -84.5975 339° North 437 503 25,600 -2,400 Descending Indianapolis Center
11:42PM 37.0425 -84.6639 340° North 461 531 23,300 -1,740 Descending Indianapolis Center
11:43PM 37.1419 -84.7097 340° North 453 521 22,100 -1,440 Descending Indianapolis Center
11:44PM 37.2742 -84.7714 340° North 434 499 20,500 -1,920 Descending Indianapolis Center
11:45PM 37.3811 -84.8225 339° North 414 476 18,200 -2,460 Descending Indianapolis Center
11:46PM 37.4850 -84.8703 340° North 399 459 15,600 -2,580 Descending Indianapolis Center
11:47PM 37.5817 -84.9167 339° North 376 433 13,000 -2,340 Descending Indianapolis Center
11:48PM 37.6678 -84.9714 333° Northwest 349 402 10,900 -1,260 Descending Indianapolis Center
11:49PM 37.7264 -85.0536 312° West 317 365 10,500 -480 Descending Indianapolis Center
11:50PM 37.7628 -85.1422 297° West 279 321 10,000 -1,020 Descending Indianapolis Center
11:51PM 37.7872 -85.2189 292° West 239 275 8,500 -1,560 Descending Indianapolis Center
11:52PM 37.8083 -85.2983 289° West 237 273 6,900 -1,680 Descending Indianapolis Center
11:53PM 37.8306 -85.3806 289° West 237 273 5,200 -960 Descending Indianapolis Center
11:54PM 37.8506 -85.4544 289° West 226 260 5,000 -120 Descending Indianapolis Center
11:55PM 37.8697 -85.5214 290° West 206 237 5,000  Level Indianapolis Center
11:56PM 37.8900 -85.5897 291° West 206 237 5,000 -480 Level Indianapolis Center
11:57PM 37.9086 -85.6544 290° West 201 231 4,100 -540 Descending Indianapolis Center
11:58PM 37.9581 -85.6731 343° North 194 223 4,000 -180 Descending Indianapolis Center
11:59PM 38.0031 -85.6867 347° North 179 206 3,800 -600 Descending Indianapolis Center
12:00AM 38.0469 -85.7025 344° North 169 194 2,800 -840 Descending Indianapolis Center
12:03AM 38.1333 -85.7333 347° North 124 143 1,000 -720 Descending Louisville TRACON
12:05AM 38.1667 -85.7333 347° North  Level FlightAware Approximate
12:12AM 38.1741 -85.7365 347° North  Level Estimated